createdAt,value
2022-08-17T00:03:02.845Z,6.53
2022-08-17T00:06:17.588Z,6.63
2022-08-17T00:09:19.516Z,6.17
2022-08-17T00:12:42.744Z,6.57
2022-08-17T00:15:44.901Z,6.20
2022-08-17T00:19:02.456Z,7.00
2022-08-17T00:22:31.567Z,6.93
2022-08-17T00:25:30.423Z,6.90
2022-08-17T00:28:33.372Z,7.37
2022-08-17T00:31:36.122Z,7.27
2022-08-17T00:34:38.416Z,7.50
2022-08-17T00:37:40.340Z,7.30
2022-08-17T00:40:45.731Z,7.40
2022-08-17T00:43:53.165Z,8.00
2022-08-17T00:46:55.035Z,7.30
2022-08-17T00:49:56.656Z,8.53
2022-08-17T00:52:58.890Z,7.80
2022-08-17T00:56:04.485Z,7.10
2022-08-17T00:59:08.902Z,7.13
2022-08-17T01:02:14.048Z,6.63
2022-08-17T01:05:20.961Z,7.47
2022-08-17T01:08:27.195Z,7.97
2022-08-17T01:11:30.477Z,6.23
2022-08-17T01:14:32.616Z,7.23
2022-08-17T01:17:34.534Z,7.50
2022-08-17T01:20:48.534Z,7.20
2022-08-17T01:23:50.422Z,7.90
2022-08-17T01:26:52.072Z,7.57
2022-08-17T01:29:58.559Z,6.90
2022-08-17T01:33:00.215Z,8.00
2022-08-17T01:36:03.531Z,6.80
2022-08-17T01:39:09.420Z,8.13
2022-08-17T01:42:30.676Z,7.57
2022-08-17T01:45:38.882Z,8.10
2022-08-17T01:48:40.545Z,8.00
2022-08-17T01:51:42.224Z,9.00
2022-08-17T01:54:47.381Z,8.07
2022-08-17T01:57:49.000Z,8.00
2022-08-17T02:00:59.958Z,8.03
2022-08-17T02:04:05.167Z,8.57
2022-08-17T02:07:06.806Z,9.10
2022-08-17T02:10:19.781Z,8.70
2022-08-17T02:13:22.451Z,8.83
2022-08-17T02:16:24.101Z,8.23
2022-08-17T02:19:25.808Z,9.13
2022-08-17T02:22:28.602Z,9.00
2022-08-17T02:25:32.642Z,9.03
2022-08-17T02:28:34.793Z,8.87
2022-08-17T02:31:36.400Z,7.80
2022-08-17T02:34:38.019Z,8.37
2022-08-17T02:37:42.062Z,8.63
2022-08-17T02:40:43.783Z,8.50
2022-08-17T02:43:47.090Z,8.63
2022-08-17T02:46:48.692Z,9.00
2022-08-17T02:49:55.513Z,9.50
2022-08-17T02:53:01.867Z,8.17
2022-08-17T02:56:04.584Z,9.10
2022-08-17T02:59:06.210Z,9.53
2022-08-17T03:02:10.861Z,9.60
2022-08-17T03:05:15.854Z,9.30
2022-08-17T03:08:18.370Z,8.50
2022-08-17T03:11:20.010Z,9.10
2022-08-17T03:14:21.633Z,9.10
2022-08-17T03:17:27.913Z,9.37
2022-08-17T03:20:31.644Z,9.47
2022-08-17T03:23:33.710Z,9.63
2022-08-17T03:26:35.346Z,9.30
2022-08-17T03:29:36.951Z,9.43
2022-08-17T03:32:41.247Z,10.10
2022-08-17T03:35:43.076Z,9.73
2022-08-17T03:38:45.140Z,10.83
2022-08-17T03:41:47.186Z,9.50
2022-08-17T03:44:50.004Z,10.30
2022-08-17T03:48:10.354Z,10.03
2022-08-17T03:51:37.443Z,10.10
2022-08-17T03:54:58.325Z,10.17
2022-08-17T03:58:00.261Z,10.40
2022-08-17T04:01:04.978Z,9.67
2022-08-17T04:04:07.008Z,10.43
2022-08-17T04:07:08.961Z,10.20
2022-08-17T04:10:10.618Z,9.97
2022-08-17T04:13:12.748Z,10.43
2022-08-17T04:16:14.367Z,9.70
2022-08-17T04:19:16.012Z,9.30
2022-08-17T04:22:32.024Z,11.10
2022-08-17T04:25:41.611Z,9.10
2022-08-17T04:28:44.064Z,9.70
2022-08-17T04:31:46.301Z,10.10
2022-08-17T04:34:47.920Z,9.93
2022-08-17T04:37:50.568Z,9.67
2022-08-17T04:41:11.897Z,9.80
2022-08-17T04:44:13.594Z,9.60
2022-08-17T04:47:29.975Z,9.63
2022-08-17T04:50:32.996Z,9.50
2022-08-17T04:53:35.051Z,10.23
2022-08-17T04:56:38.383Z,10.10
2022-08-17T04:59:40.007Z,11.53
2022-08-17T05:02:50.673Z,10.87
2022-08-17T05:05:53.644Z,12.07
2022-08-17T05:08:56.384Z,10.73
2022-08-17T05:12:02.168Z,10.30
2022-08-17T05:15:04.291Z,10.00
2022-08-17T05:18:07.462Z,11.47
2022-08-17T05:21:09.478Z,10.47
2022-08-17T05:24:38.238Z,10.50
2022-08-17T05:27:35.323Z,10.90
2022-08-17T05:30:39.323Z,11.20
2022-08-17T05:33:45.203Z,11.50
2022-08-17T05:36:48.018Z,10.50
2022-08-17T05:39:49.749Z,9.67
2022-08-17T05:42:52.644Z,10.57
2022-08-17T05:46:06.627Z,10.33
2022-08-17T05:49:09.438Z,10.40
2022-08-17T05:52:27.026Z,10.83
2022-08-17T05:55:53.102Z,10.47
2022-08-17T05:59:05.343Z,10.83
2022-08-17T06:02:27.775Z,10.50
2022-08-17T06:05:59.961Z,12.10
2022-08-17T06:09:15.225Z,11.30
2022-08-17T06:12:55.789Z,11.07
2022-08-17T06:16:33.740Z,11.47
2022-08-17T06:19:39.462Z,10.50
2022-08-17T06:22:55.650Z,10.93
2022-08-17T06:26:03.876Z,11.60
2022-08-17T06:29:37.166Z,10.90
2022-08-17T06:32:44.464Z,10.83
2022-08-17T06:36:29.197Z,10.80
2022-08-17T06:40:15.333Z,11.70
2022-08-17T06:43:32.580Z,10.77
2022-08-17T06:46:41.403Z,11.30
2022-08-17T06:50:01.021Z,12.07
2022-08-17T06:53:29.361Z,10.37
2022-08-17T06:57:10.695Z,11.10
2022-08-17T07:00:23.806Z,10.30
2022-08-17T07:03:37.657Z,10.47
2022-08-17T07:06:42.427Z,10.17
2022-08-17T07:09:44.326Z,10.27
2022-08-17T07:12:47.079Z,9.70
2022-08-17T07:15:56.950Z,10.17
2022-08-17T07:18:59.532Z,10.77
2022-08-17T07:22:50.361Z,8.87
2022-08-17T07:26:05.527Z,8.80
2022-08-17T07:29:10.066Z,8.60
2022-08-17T07:32:17.951Z,9.80
2022-08-17T07:35:22.097Z,9.57
2022-08-17T07:38:29.709Z,9.67
2022-08-17T07:41:53.207Z,9.23
2022-08-17T07:45:22.876Z,10.20
2022-08-17T07:48:26.938Z,10.20
2022-08-17T07:51:36.388Z,10.00
2022-08-17T07:54:40.930Z,11.67
2022-08-17T07:57:42.583Z,11.00
2022-08-17T08:00:45.257Z,11.73
2022-08-17T08:03:52.417Z,12.57
2022-08-17T08:06:57.648Z,12.70
2022-08-17T08:10:01.552Z,12.73
2022-08-17T08:13:07.257Z,13.03
2022-08-17T08:16:24.631Z,13.13
2022-08-17T08:19:29.184Z,12.83
2022-08-17T08:22:43.431Z,13.00
2022-08-17T08:26:03.617Z,12.00
2022-08-17T08:29:20.326Z,13.30
2022-08-17T08:32:53.956Z,12.57
2022-08-17T08:37:12.562Z,13.87
2022-08-17T08:40:00.844Z,13.60
2022-08-17T08:43:22.002Z,13.70
2022-08-17T08:46:42.364Z,13.60
2022-08-17T08:50:08.469Z,12.83
2022-08-17T08:53:44.053Z,13.10
2022-08-17T09:00:26.564Z,13.77
2022-08-17T09:03:49.737Z,13.23
2022-08-17T09:07:14.377Z,13.87
2022-08-17T09:10:51.702Z,13.03
2022-08-17T09:14:21.472Z,11.93
2022-08-17T09:17:45.496Z,12.50
2022-08-17T09:20:53.878Z,12.70
2022-08-17T09:24:25.015Z,13.60
2022-08-17T09:28:00.568Z,12.90
2022-08-17T09:31:08.776Z,13.20
2022-08-17T09:34:18.212Z,13.10
2022-08-17T09:37:28.150Z,15.30
2022-08-17T09:40:52.683Z,14.13
2022-08-17T09:44:22.653Z,13.90
2022-08-17T09:47:33.401Z,13.53
2022-08-17T09:51:04.358Z,13.47
2022-08-17T09:54:38.539Z,13.33
2022-08-17T09:57:53.399Z,13.80
2022-08-17T10:01:08.138Z,12.90
2022-08-17T10:04:29.326Z,13.10
2022-08-17T10:07:40.881Z,12.63
2022-08-17T10:11:15.371Z,11.93
2022-08-17T10:14:37.990Z,13.33
2022-08-17T10:18:22.226Z,11.20
2022-08-17T10:21:44.270Z,11.60
2022-08-17T10:25:22.386Z,10.93
2022-08-17T10:28:32.022Z,12.33
2022-08-17T10:31:40.862Z,11.50
2022-08-17T10:35:03.012Z,11.20
2022-08-17T10:38:36.429Z,10.83
2022-08-17T10:41:42.933Z,10.93
2022-08-17T10:44:51.946Z,10.70
2022-08-17T10:48:06.349Z,12.07
2022-08-17T10:51:13.039Z,12.77
2022-08-17T10:54:46.219Z,12.57
2022-08-17T10:57:50.141Z,13.37
2022-08-17T11:00:53.209Z,13.83
2022-08-17T11:03:58.251Z,14.27
2022-08-17T11:07:27.906Z,12.87
2022-08-17T11:11:05.866Z,13.47
2022-08-17T11:14:30.912Z,13.60
2022-08-17T11:18:11.341Z,12.87
2022-08-17T11:21:42.262Z,12.73
2022-08-17T11:24:51.307Z,12.43
2022-08-17T11:28:37.359Z,12.00
2022-08-17T11:31:46.473Z,11.63
2022-08-17T11:34:50.475Z,12.90
2022-08-17T11:38:26.321Z,11.50
2022-08-17T11:41:33.100Z,10.53
2022-08-17T11:44:43.140Z,9.50
2022-08-17T11:48:27.190Z,10.17
2022-08-17T11:52:01.531Z,10.00
2022-08-17T11:55:31.813Z,9.10
2022-08-17T11:58:41.821Z,8.60
2022-08-17T12:01:55.657Z,8.33
2022-08-17T12:05:19.308Z,8.30
2022-08-17T12:08:22.341Z,8.43
2022-08-17T12:11:56.277Z,7.73
2022-08-17T12:15:10.551Z,8.07
2022-08-17T12:18:24.521Z,8.60
2022-08-17T12:21:31.698Z,8.00
2022-08-17T12:24:39.573Z,8.13
2022-08-17T12:28:05.008Z,7.70
2022-08-17T12:31:25.901Z,8.53
2022-08-17T12:34:39.172Z,7.63
2022-08-17T12:37:46.996Z,7.97
2022-08-17T12:41:00.077Z,8.13
2022-08-17T12:44:09.408Z,7.53
2022-08-17T12:47:22.439Z,8.13
2022-08-17T12:50:29.192Z,7.63
2022-08-17T12:53:35.149Z,7.83
2022-08-17T12:56:36.767Z,7.60
2022-08-17T12:59:43.514Z,9.03
2022-08-17T13:02:54.488Z,7.97
2022-08-17T13:06:01.479Z,7.80
2022-08-17T13:09:40.075Z,7.93
2022-08-17T13:12:42.461Z,8.37
2022-08-17T13:16:04.230Z,7.33
2022-08-17T13:19:20.151Z,8.10
2022-08-17T13:22:43.262Z,7.50
2022-08-17T13:26:04.915Z,8.20
2022-08-17T13:29:16.680Z,7.97
2022-08-17T13:32:24.223Z,7.27
2022-08-17T13:35:50.512Z,7.90
2022-08-17T13:39:05.160Z,7.90
2022-08-17T13:42:51.595Z,8.13
2022-08-17T13:46:09.166Z,9.07
2022-08-17T13:49:11.986Z,7.60
2022-08-17T13:52:32.080Z,7.50
2022-08-17T13:55:34.812Z,8.18
2022-08-17T13:58:39.834Z,8.00
2022-08-17T14:01:54.113Z,7.85
2022-08-17T14:04:56.771Z,8.18
2022-08-17T14:08:01.866Z,8.13
2022-08-17T14:11:09.071Z,8.38
2022-08-17T14:14:12.505Z,7.93
2022-08-17T14:17:14.769Z,8.63
2022-08-17T14:20:19.839Z,7.70
2022-08-17T14:23:21.475Z,7.90
2022-08-17T14:26:23.697Z,7.55
2022-08-17T14:29:27.888Z,7.80
2022-08-17T14:32:32.909Z,7.88
2022-08-17T14:35:35.200Z,7.35
2022-08-17T14:38:37.855Z,7.60
2022-08-17T14:41:40.439Z,7.70
2022-08-17T14:44:44.798Z,7.28
2022-08-17T14:47:46.937Z,7.32
2022-08-17T14:50:48.991Z,7.45
2022-08-17T14:53:50.709Z,7.15
2022-08-17T14:57:02.881Z,8.05
2022-08-17T15:00:16.599Z,8.10
2022-08-17T15:03:18.985Z,7.60
2022-08-17T15:06:22.291Z,7.25
2022-08-17T15:09:23.908Z,6.70
2022-08-17T15:12:29.936Z,7.50
2022-08-17T15:15:34.084Z,6.95
2022-08-17T15:18:36.520Z,6.70
2022-08-17T15:21:38.115Z,7.43
2022-08-17T15:24:39.723Z,7.10
2022-08-17T15:27:41.954Z,6.70
2022-08-17T15:30:44.882Z,6.93
2022-08-17T15:33:46.586Z,6.70
2022-08-17T15:36:49.660Z,6.28
2022-08-17T15:39:51.618Z,6.50
2022-08-17T15:42:53.523Z,6.43
2022-08-17T15:46:10.723Z,7.18
2022-08-17T15:49:12.540Z,6.68
2022-08-17T15:52:20.304Z,6.70
2022-08-17T15:55:24.258Z,7.22
2022-08-17T15:58:29.932Z,7.00
2022-08-17T16:03:14.688Z,7.25
2022-08-17T16:05:10.804Z,6.90
2022-08-17T16:08:20.059Z,7.13
2022-08-17T16:11:22.690Z,7.18
2022-08-17T16:14:30.345Z,7.03
2022-08-17T16:17:39.602Z,7.70
2022-08-17T16:20:42.585Z,7.28
2022-08-17T16:23:44.163Z,7.40
2022-08-17T16:26:45.823Z,7.10
2022-08-17T16:29:49.682Z,6.82
2022-08-17T16:32:59.612Z,6.60
2022-08-17T16:36:01.337Z,7.32
2022-08-17T16:39:03.177Z,6.88
2022-08-17T16:42:23.371Z,6.80
2022-08-17T16:45:28.146Z,7.38
2022-08-17T16:48:30.107Z,7.18
2022-08-17T16:51:32.089Z,7.32
2022-08-17T16:54:35.120Z,7.80
2022-08-17T16:57:47.558Z,6.40
2022-08-17T17:00:52.182Z,7.70
2022-08-17T17:03:58.398Z,7.60
2022-08-17T17:07:14.569Z,7.05
2022-08-17T17:10:23.860Z,6.90
2022-08-17T17:13:32.155Z,7.70
2022-08-17T17:16:47.557Z,7.80
2022-08-17T17:20:02.811Z,7.40
2022-08-17T17:23:33.816Z,7.53
2022-08-17T17:27:13.302Z,7.97
2022-08-17T17:30:20.726Z,7.53
2022-08-17T17:33:32.853Z,7.50
2022-08-17T17:36:46.054Z,7.38
2022-08-17T17:39:55.053Z,7.53
2022-08-17T17:43:20.355Z,7.43
2022-08-17T17:46:33.724Z,6.75
2022-08-17T17:49:43.886Z,7.70
2022-08-17T17:52:56.313Z,7.22
2022-08-17T17:56:40.427Z,7.85
2022-08-17T17:59:58.901Z,7.65
2022-08-17T18:03:11.348Z,6.80
2022-08-17T18:06:39.918Z,7.00
2022-08-17T18:10:01.035Z,7.20
2022-08-17T18:13:09.060Z,7.47
2022-08-17T18:16:13.454Z,7.50
2022-08-17T18:19:22.420Z,7.53
2022-08-17T18:22:24.823Z,7.30
2022-08-17T18:25:44.682Z,7.80
2022-08-17T18:28:50.715Z,7.70
2022-08-17T18:32:17.801Z,7.70
2022-08-17T18:35:19.356Z,8.10
2022-08-17T18:38:29.194Z,7.60
2022-08-17T18:41:40.670Z,7.90
2022-08-17T18:44:44.040Z,7.67
2022-08-17T18:47:55.373Z,8.07
2022-08-17T18:51:00.930Z,7.60
2022-08-17T18:54:07.901Z,8.10
2022-08-17T18:57:12.191Z,7.77
2022-08-17T19:00:41.023Z,8.57
2022-08-17T19:03:43.308Z,8.20
2022-08-17T19:06:44.987Z,8.70
2022-08-17T19:09:51.707Z,7.80
2022-08-17T19:13:12.765Z,7.93
2022-08-17T19:16:40.599Z,8.10
2022-08-17T19:20:05.027Z,8.60
2022-08-17T19:23:55.436Z,8.43
2022-08-17T19:27:17.948Z,7.50
2022-08-17T19:30:20.248Z,8.07
2022-08-17T19:33:22.216Z,7.70
2022-08-17T19:36:40.905Z,9.00
2022-08-17T19:40:00.947Z,8.10
2022-08-17T19:43:23.201Z,8.70
2022-08-17T19:46:35.867Z,8.90
2022-08-17T19:50:00.923Z,8.53
2022-08-17T19:53:20.675Z,8.00
2022-08-17T19:56:34.947Z,8.07
2022-08-17T19:59:58.562Z,9.10
2022-08-17T20:03:16.545Z,9.40
2022-08-17T20:06:20.955Z,10.17
2022-08-17T20:09:43.460Z,10.20
2022-08-17T20:12:47.436Z,10.80
2022-08-17T20:15:49.047Z,10.77
2022-08-17T20:19:05.299Z,10.83
2022-08-17T20:22:15.412Z,12.77
2022-08-17T20:25:30.053Z,10.87
2022-08-17T20:28:35.755Z,10.10
2022-08-17T20:31:49.785Z,10.37
2022-08-17T20:35:07.908Z,12.13
2022-08-17T20:38:31.850Z,9.17
2022-08-17T20:42:02.941Z,9.10
2022-08-17T20:45:26.256Z,11.97
2022-08-17T20:48:38.499Z,10.80
2022-08-17T20:52:01.467Z,8.30
2022-08-17T20:55:04.904Z,8.37
2022-08-17T20:58:15.605Z,8.50
2022-08-17T21:01:34.447Z,8.57
2022-08-17T21:04:49.875Z,9.00
2022-08-17T21:07:57.959Z,8.37
2022-08-17T21:11:20.806Z,8.80
2022-08-17T21:14:45.357Z,9.60
2022-08-17T21:17:59.112Z,9.70
2022-08-17T21:21:20.944Z,10.20
2022-08-17T21:24:55.047Z,10.30
2022-08-17T21:28:29.989Z,10.17
2022-08-17T21:31:43.063Z,12.10
2022-08-17T21:35:14.665Z,11.60
2022-08-17T21:38:21.150Z,10.43
2022-08-17T21:41:33.705Z,11.33
2022-08-17T21:44:37.681Z,10.03
2022-08-17T21:47:43.388Z,9.60
2022-08-17T21:50:57.629Z,9.77
2022-08-17T21:54:04.189Z,9.70
2022-08-17T21:57:16.070Z,8.70
2022-08-17T22:00:27.365Z,9.57
2022-08-17T22:03:31.594Z,9.87
2022-08-17T22:06:38.523Z,9.27
2022-08-17T22:09:49.009Z,9.80
2022-08-17T22:13:17.262Z,10.27
2022-08-17T22:16:28.618Z,9.10
2022-08-17T22:19:33.236Z,9.87
2022-08-17T22:23:18.229Z,9.67
2022-08-17T22:26:22.441Z,9.20
2022-08-17T22:29:57.088Z,10.77
2022-08-17T22:33:01.878Z,10.60
2022-08-17T22:59:55.750Z,9.67
2022-08-17T23:03:09.148Z,10.70
2022-08-17T23:06:11.355Z,10.57
2022-08-17T23:09:13.006Z,10.90
2022-08-17T23:12:18.325Z,10.83
2022-08-17T23:15:20.302Z,11.07
2022-08-17T23:18:23.383Z,10.40
2022-08-17T23:21:29.492Z,11.20
2022-08-17T23:24:35.532Z,11.60
2022-08-17T23:27:37.214Z,11.47
2022-08-17T23:30:42.438Z,10.57
2022-08-17T23:33:45.564Z,11.23
2022-08-17T23:36:52.887Z,10.13
2022-08-17T23:39:54.624Z,10.30
2022-08-17T23:42:56.450Z,11.27
2022-08-17T23:46:00.742Z,11.27
2022-08-17T23:49:03.161Z,10.70
2022-08-17T23:52:09.848Z,11.60
2022-08-17T23:55:13.322Z,10.00
2022-08-17T23:58:14.910Z,11.93
